Terminal Aerodrome Forecast
Issued by NWS Portland, ME

Home | Current Version | Previous Version | Text Only | Print | Product List | Glossary On
Versions: 1 2 3 4 5 6 7 8 9 10 11 12 13 14 15 16
503
FTUS41 KGYX 291122
TAFPWM
TAF
KPWM 291122Z 2912/3012 VRB03KT P6SM SCT080 BKN250
     FM291400 07005KT P6SM -SHRA SCT025 BKN050
     FM300000 VRB03KT P6SM SCT100=

USA.gov is the U.S. government's official web portal to all federal, state and local government web resources and services.